Flight Track Log - Related Links

Times and Time Zones

All times are in EDT time to prevent confusion due to time zone crossing. See the EJM53 flight status page for this flight to view local times or setup timezone preferences in your user account.

Time Position Orientation Groundspeed Altitude Reporting Facility
EDT Latitude Longitude Course Direction KTS MPH feet Rate Location/Type
Thu 02:02:03 PM 37.6500 -122.3333 68° East 179 206 2,700  Level Northern Cal TRACON
Thu 02:03:03 PM 37.7000 -122.2833 38° Northeast 228 262 5,300 2,545 Climbing Northern Cal TRACON
Thu 02:05:14 PM 37.8231 -122.1456 41° Northeast 304 350 10,800 2,500 Climbing Oakland Center
Thu 02:06:15 PM 37.8992 -122.0742 36° Northeast 335 386 13,300 2,537 Climbing Oakland Center
Thu 02:07:00 PM 37.9201 -121.4278 68° East  Level Estimated
Thu 02:07:17 PM 37.9961 -121.9825 37° Northeast 360 414 16,000  Level Oakland Center
Thu 02:08:19 PM 38.0806 -121.9008 37° Northeast 377 434 18,200 1,805 Climbing Oakland Center
Thu 02:09:20 PM 38.1700 -121.8150 37° Northeast 395 455 19,700 1,512 Climbing Oakland Center
Thu 02:10:22 PM 38.2631 -121.7239 38° Northeast 417 480 21,300 1,645 Climbing Oakland Center
Thu 02:11:24 PM 38.3567 -121.6350 37° Northeast 420 483 23,100 1,694 Climbing Oakland Center
Thu 02:12:26 PM 38.4550 -121.5300 40° Northeast 438 504 24,800 1,463 Climbing Oakland Center
Thu 02:13:27 PM 38.5236 -121.4167 52° Northeast 436 502 26,100 1,463 Climbing Oakland Center
Thu 02:14:29 PM 38.6103 -121.2625 54° Northeast 446 513 27,800 1,306 Climbing Oakland Center
Thu 02:15:31 PM 38.6861 -121.1361 52° Northeast 461 531 28,800 976 Climbing Oakland Center
Thu 02:16:32 PM 38.7622 -121.0033 54° Northeast 463 533 29,800 976 Climbing Oakland Center
Thu 02:17:34 PM 38.8397 -120.8667 54° Northeast 471 542 30,800 919 Climbing Oakland Center
Thu 02:18:36 PM 38.9189 -120.7311 53° Northeast 474 545 31,700 683 Climbing Oakland Center
Thu 02:19:37 PM 38.9983 -120.5922 54° Northeast 481 554 32,200 537 Climbing Oakland Center
Thu 02:20:39 PM 39.0967 -120.4211 53° Northeast 494 568 32,800 532 Climbing Oakland Center
Thu 02:21:41 PM 39.1789 -120.2772 54° Northeast 499 574 33,300 435 Climbing Oakland Center
Thu 02:22:43 PM 39.2633 -120.1311 53° Northeast 505 581 33,700 439 Climbing Oakland Center
Thu 02:23:44 PM 39.3444 -119.9900 53° Northeast 506 582 34,200 488 Climbing Oakland Center
Thu 02:24:46 PM 39.4275 -119.8419 54° Northeast 510 587 34,700 484 Climbing Oakland Center
Thu 02:25:48 PM 39.5103 -119.6931 54° Northeast 510 587 35,200 537 Climbing Oakland Center
Thu 02:26:49 PM 39.6108 -119.5156 54° Northeast 511 588 35,800 537 Climbing Oakland Center
Thu 02:27:51 PM 39.6942 -119.3656 54° Northeast 507 583 36,300 484 Climbing Oakland Center
Thu 02:28:53 PM 39.7789 -119.2139 54° Northeast 515 593 36,800 341 Climbing Oakland Center
Thu 02:29:54 PM 39.8619 -119.0628 54° Northeast 509 586 37,000 98 Climbing Oakland Center
Thu 02:30:56 PM 39.9461 -118.9075 55° Northeast 516 594 37,000  Level Oakland Center
Thu 02:31:58 PM 40.0322 -118.7489 55° Northeast 528 608 37,000  Level Oakland Center
Thu 02:32:59 PM 40.1181 -118.5864 55° Northeast 538 619 37,000  Level Oakland Center
Thu 02:34:01 PM 40.1725 -118.4036 69° East 535 616 37,000  Level Oakland Center
Thu 02:34:33 PM 40.2014 -118.2981 70° East 539 620 37,000  Level Salt Lake Center
Thu 02:35:03 PM 40.2233 -118.2172 70° East 540 621 37,000  Level Oakland Center
Thu 02:36:04 PM 40.2814 -118.0031 70° East 538 619 37,000  Level Oakland Center
Thu 02:37:06 PM 40.3292 -117.8272 70° East 536 617 37,000  Level Oakland Center
Thu 02:37:39 PM 40.3528 -117.7392 71° East 537 618 37,000  Level Salt Lake Center
Thu 02:38:41 PM 40.4075 -117.5347 71° East 532 612 37,000  Level Salt Lake Center
Thu 02:39:43 PM 40.4553 -117.3597 70° East 531 611 37,000  Level Salt Lake Center
Thu 02:40:45 PM 40.5097 -117.1525 71° East 534 615 37,000  Level Salt Lake Center
Thu 02:41:47 PM 40.5578 -116.9733 71° East 534 615 37,000  Level Salt Lake Center
Thu 02:42:49 PM 40.6189 -116.7992 65° Northeast 539 620 37,000  Level Salt Lake Center
Thu 02:43:51 PM 40.6944 -116.6025 63° Northeast 535 616 37,000  Level Salt Lake Center
Thu 02:44:53 PM 40.7606 -116.4347 62° Northeast 537 618 37,000  Level Salt Lake Center
Thu 02:45:55 PM 40.8353 -116.2397 63° Northeast 534 615 37,000  Level Salt Lake Center
Thu 02:46:58 PM 40.9011 -116.0700 63° Northeast 540 621 37,000  Level Salt Lake Center
Thu 02:48:00 PM 40.9739 -115.8708 64° Northeast 539 620 37,000  Level Salt Lake Center
Thu 02:49:02 PM 41.0389 -115.7044 63° Northeast 536 617 37,000  Level Salt Lake Center
Thu 02:50:04 PM 41.1144 -115.5069 63° Northeast 535 616 37,000  Level Salt Lake Center
Thu 02:51:06 PM 41.1772 -115.3369 64° Northeast 536 617 37,000  Level Salt Lake Center
Thu 02:52:08 PM 41.2408 -115.1678 63° Northeast 535 616 37,000  Level Salt Lake Center
Thu 02:53:10 PM 41.3142 -114.9697 64° Northeast 535 616 37,000  Level Salt Lake Center
Thu 02:54:12 PM 41.3836 -114.7775 64° Northeast 535 616 37,000  Level Salt Lake Center
Thu 02:55:14 PM 41.4481 -114.6000 64° Northeast 534 615 37,000  Level Salt Lake Center
Thu 02:56:16 PM 41.5125 -114.4231 64° Northeast 532 612 37,000  Level Salt Lake Center
Thu 02:57:18 PM 41.5753 -114.2450 65° Northeast 531 611 37,000  Level Salt Lake Center
Thu 02:58:20 PM 41.6397 -114.0686 64° Northeast 530 610 37,000  Level Salt Lake Center
Thu 02:59:22 PM 41.7028 -113.8908 65° Northeast 530 610 37,000  Level Salt Lake Center
Thu 03:00:24 PM 41.7781 -113.6772 65° Northeast 529 609 37,000  Level Salt Lake Center
Thu 03:01:26 PM 41.8408 -113.4981 65° Northeast 531 611 37,000  Level Salt Lake Center
Thu 03:02:28 PM 41.9019 -113.3197 65° Northeast 528 608 37,000  Level Salt Lake Center
Thu 03:03:30 PM 41.9650 -113.1403 65° Northeast 530 610 37,000  Level Salt Lake Center
Thu 03:04:31 PM 42.0272 -112.9608 65° Northeast 530 610 37,000  Level Salt Lake Center
Thu 03:05:33 PM 42.0872 -112.7814 66° East 527 606 37,000  Level Salt Lake Center
Thu 03:06:35 PM 42.1489 -112.6008 65° Northeast 529 609 37,000  Level Salt Lake Center
Thu 03:07:37 PM 42.2206 -112.3867 66° East 524 603 37,000  Level Salt Lake Center
Thu 03:08:39 PM 42.2794 -112.2069 66° East 523 602 37,000  Level Salt Lake Center
Thu 03:09:41 PM 42.3378 -112.0247 67° East 527 606 37,000  Level Salt Lake Center
Thu 03:10:43 PM 42.3969 -111.8447 66° East 525 604 37,000  Level Salt Lake Center
Thu 03:11:45 PM 42.4542 -111.6636 67° East 524 603 37,000  Level Salt Lake Center
Thu 03:12:47 PM 42.5133 -111.4819 66° East 526 605 37,000  Level Salt Lake Center
Thu 03:13:49 PM 42.5822 -111.2650 67° East 522 601 37,000  Level Salt Lake Center
Thu 03:14:51 PM 42.6392 -111.0831 67° East 524 603 37,000  Level Salt Lake Center
Thu 03:15:53 PM 42.6908 -110.9164 67° East 522 601 37,000  Level Salt Lake Center
Thu 03:16:55 PM 42.7550 -110.7081 67° East 528 608 37,000  Level Salt Lake Center
Thu 03:17:57 PM 42.8081 -110.5372 67° East 518 596 37,000  Level Salt Lake Center
Thu 03:18:59 PM 42.8689 -110.3369 67° East 514 592 37,000  Level Salt Lake Center
Thu 03:20:01 PM 42.9214 -110.1619 68° East 519 597 37,000  Level Salt Lake Center
Thu 03:21:03 PM 42.9831 -109.9583 67° East 520 598 37,000  Level Salt Lake Center
Thu 03:22:05 PM 43.0325 -109.7919 68° East 520 598 37,000  Level Salt Lake Center
Thu 03:23:07 PM 43.0858 -109.6089 68° East 521 600 37,000  Level Salt Lake Center
Thu 03:24:09 PM 43.1514 -109.3892 68° East 521 600 37,000  Level Salt Lake Center
Thu 03:25:11 PM 43.2047 -109.2072 68° East 519 597 37,000  Level Salt Lake Center
Thu 03:26:13 PM 43.2581 -109.0231 68° East 520 598 37,000  Level Salt Lake Center
Thu 03:27:15 PM 43.3097 -108.8386 69° East 521 600 37,000  Level Salt Lake Center
Thu 03:28:17 PM 43.3625 -108.6586 68° East 513 590 37,000  Level Salt Lake Center
Thu 03:29:19 PM 43.4142 -108.4728 69° East 520 598 37,000  Level Salt Lake Center
Thu 03:30:21 PM 43.4764 -108.2544 68° East 515 593 37,000  Level Salt Lake Center
Thu 03:31:23 PM 43.5311 -108.0711 68° East 519 597 37,000  Level Salt Lake Center
Thu 03:32:25 PM 43.5847 -107.8892 68° East 517 595 37,000  Level Salt Lake Center
Thu 03:33:27 PM 43.6378 -107.7064 68° East 516 594 37,000  Level Salt Lake Center
Thu 03:34:29 PM 43.6908 -107.5239 68° East 516 594 37,000  Level Salt Lake Center
Thu 03:35:31 PM 43.7519 -107.3067 69° East 511 588 37,000  Level Salt Lake Center
Thu 03:36:33 PM 43.8036 -107.1253 68° East 508 585 37,000  Level Salt Lake Center
Thu 03:37:35 PM 43.8561 -106.9406 68° East 515 593 37,000  Level Salt Lake Center
Thu 03:38:37 PM 43.9139 -106.7369 68° East 518 596 37,000  Level Salt Lake Center
Thu 03:39:39 PM 43.9650 -106.5578 68° East 520 598 37,000  Level Salt Lake Center
Thu 03:40:43 PM 44.0233 -106.3453 69° East 519 597 37,000  Level Denver Center
Thu 03:41:45 PM 44.0694 -106.1636 70° East 520 598 37,000  Level Denver Center
Thu 03:42:48 PM 44.1214 -105.9506 71° East 520 598 37,000  Level Denver Center
Thu 03:43:50 PM 44.1667 -105.7689 71° East 519 597 37,000  Level Denver Center
Thu 03:44:52 PM 44.2192 -105.5569 71° East 518 596 37,000  Level Denver Center
Thu 03:45:54 PM 44.2642 -105.3742 71° East 519 597 37,000  Level Denver Center
Thu 03:46:56 PM 44.3139 -105.1636 72° East 514 592 37,000  Level Denver Center
Thu 03:47:57 PM 44.3500 -105.0139 71° East 512 589 37,000  Level Denver Center
Thu 03:49:00 PM 44.4075 -104.7706 72° East 514 592 37,000  Level Denver Center
Thu 03:50:02 PM 44.4500 -104.5878 72° East 516 594 37,000  Level Denver Center
Thu 03:51:04 PM 44.4925 -104.4078 72° East 512 589 37,000  Level Denver Center
Thu 03:52:06 PM 44.5425 -104.1919 72° East 520 598 37,000  Level Denver Center
Thu 03:53:08 PM 44.5842 -104.0097 72° East 517 595 37,000  Level Denver Center
Thu 03:54:10 PM 44.6253 -103.8275 72° East 513 590 37,000  Level Denver Center
Thu 03:55:24 PM 44.6736 -103.6136 72° East 513 590 37,000  Level Denver Center
Thu 03:56:27 PM 44.7242 -103.3833 73° East 512 589 37,000  Level Denver Center
Thu 03:57:29 PM 44.7656 -103.1933 73° East 509 586 37,000  Level Denver Center
Thu 03:58:31 PM 44.8161 -102.9653 73° East 509 586 37,000  Level Denver Center
Thu 03:59:33 PM 44.8575 -102.7761 73° East 508 585 37,000  Level Denver Center
Thu 04:00:35 PM 44.8986 -102.5856 73° East 508 585 37,000  Level Denver Center
Thu 04:01:37 PM 44.9383 -102.3931 74° East 510 587 37,000  Level Denver Center
Thu 04:02:39 PM 44.9711 -102.2403 73° East 509 586 37,000  Level Denver Center
Thu 04:03:41 PM 45.0178 -102.0083 74° East 512 589 37,000  Level Denver Center
Thu 04:04:44 PM 45.0667 -101.7764 73° East 513 590 37,000  Level Denver Center
Thu 04:05:46 PM 45.0961 -101.5786 78° East 513 590 37,000  Level Denver Center
Thu 04:06:48 PM 45.1131 -101.3783 83° East 513 590 37,000  Level Denver Center
Thu 04:07:50 PM 45.1353 -101.1781 81° East 513 590 37,000  Level Denver Center
Thu 04:09:04 PM 45.1683 -100.9344 79° East 521 600 37,000  Level Minneapolis Center
Thu 04:10:06 PM 45.1894 -100.7347 81° East 516 594 37,000  Level Minneapolis Center
Thu 04:11:08 PM 45.2156 -100.4933 81° East 516 594 37,000  Level Minneapolis Center
Thu 04:12:11 PM 45.2367 -100.2908 82° East 514 592 37,000  Level Minneapolis Center
Thu 04:13:13 PM 45.2592 -100.0886 81° East 512 589 37,000  Level Minneapolis Center
Thu 04:14:15 PM 45.2794 -99.8800 82° East 520 598 37,000  Level Minneapolis Center
Thu 04:15:17 PM 45.2981 -99.6744 83° East 520 598 37,000  Level Minneapolis Center
Thu 04:16:19 PM 45.3175 -99.4725 82° East 516 594 37,000  Level Minneapolis Center
Thu 04:17:21 PM 45.3369 -99.2719 82° East 512 589 37,000  Level Minneapolis Center
Thu 04:18:23 PM 45.3558 -99.0703 82° East 513 590 37,000  Level Minneapolis Center
Thu 04:19:25 PM 45.3775 -98.8283 83° East 513 590 37,000  Level Minneapolis Center
Thu 04:20:27 PM 45.3953 -98.6258 83° East 516 594 37,000  Level Minneapolis Center
Thu 04:21:30 PM 45.4128 -98.4228 83° East 516 594 37,000  Level Minneapolis Center
Thu 04:22:32 PM 45.4147 -98.2178 89° East 518 596 37,000  Level Minneapolis Center
Thu 04:23:34 PM 45.4050 -98.0228 94° East 518 596 37,000  Level Minneapolis Center
Thu 04:24:36 PM 45.3964 -97.7775 93° East 518 596 37,000  Level Minneapolis Center
Thu 04:25:38 PM 45.3886 -97.5750 93° East 516 594 37,000  Level Minneapolis Center
Thu 04:26:40 PM 45.3806 -97.3714 93° East 515 593 37,000  Level Minneapolis Center
Thu 04:27:42 PM 45.3725 -97.1694 93° East 512 589 37,000  Level Minneapolis Center
Thu 04:28:44 PM 45.3633 -96.9683 94° East 510 587 37,000  Level Minneapolis Center
Thu 04:29:46 PM 45.3539 -96.7703 94° East 505 581 37,000  Level Minneapolis Center
Thu 04:30:48 PM 45.3467 -96.6100 94° East 506 582 37,000  Level Minneapolis Center
Thu 04:32:02 PM 45.3331 -96.3328 94° East 503 579 37,000  Level Minneapolis Center
Thu 04:33:05 PM 45.3214 -96.0944 94° East 504 580 37,000  Level Minneapolis Center
Thu 04:34:07 PM 45.3106 -95.8967 94° East 502 578 37,000  Level Minneapolis Center
Thu 04:35:09 PM 45.3006 -95.6994 94° East 502 578 37,000  Level Minneapolis Center
Thu 04:36:11 PM 45.2883 -95.5006 95° East 504 580 37,000  Level Minneapolis Center
Thu 04:37:25 PM 45.2772 -95.3033 95° East 501 577 37,000  Level Minneapolis Center
Thu 04:38:28 PM 45.2614 -95.0289 95° East 498 573 37,000  Level Minneapolis Center
Thu 04:39:30 PM 45.2486 -94.8319 95° East 500 575 37,000  Level Minneapolis Center
Thu 04:40:32 PM 45.2361 -94.6372 95° East 498 573 37,000  Level Minneapolis Center
Thu 04:41:34 PM 45.2242 -94.4569 95° East 498 573 37,000  Level Minneapolis Center
Thu 04:42:36 PM 45.2078 -94.2250 96° East 494 568 37,000  Level Minneapolis Center
Thu 04:43:38 PM 45.1942 -94.0311 96° East 495 570 37,000  Level Minneapolis Center
Thu 04:44:40 PM 45.1811 -93.8364 95° East 495 570 37,000  Level Minneapolis Center
Thu 04:45:42 PM 45.1672 -93.6411 96° East 497 572 37,000  Level Minneapolis Center
Thu 04:46:44 PM 45.1522 -93.4439 96° East 499 574 37,000  Level Minneapolis Center
Thu 04:47:46 PM 45.1369 -93.2458 96° East 501 577 37,000  Level Minneapolis Center
Thu 04:48:48 PM 45.1167 -93.0475 98° East 504 580 37,000  Level Minneapolis Center
Thu 04:49:50 PM 45.0964 -92.8106 97° East 503 579 37,000  Level Minneapolis Center
Thu 04:50:53 PM 45.0783 -92.6167 97° East 497 572 37,000  Level Minneapolis Center
Thu 04:51:55 PM 45.0608 -92.4217 97° East 499 574 37,000  Level Minneapolis Center
Thu 04:52:57 PM 45.0414 -92.2261 98° East 502 578 37,000  Level Minneapolis Center
Thu 04:53:59 PM 45.0211 -92.0306 98° East 503 579 37,000  Level Minneapolis Center
Thu 04:55:01 PM 45.0003 -91.8356 99° East 504 580 37,000  Level Minneapolis Center
Thu 04:56:03 PM 44.9792 -91.6425 99° East 502 578 37,000 871 Level Minneapolis Center
Thu 04:57:05 PM 44.9536 -91.4167 99° East 493 567 38,800 968 Climbing Minneapolis Center
Thu 04:58:07 PM 44.9328 -91.2342 99° East 477 549 39,000 97 Climbing Minneapolis Center
Thu 04:59:09 PM 44.9169 -91.0853 98° East 479 551 39,000  Level Minneapolis Center
Thu 05:00:11 PM 44.8906 -90.8517 99° East 491 565 39,000  Level Minneapolis Center
Thu 05:01:13 PM 44.8689 -90.6583 99° East 499 574 39,000  Level Minneapolis Center
Thu 05:02:15 PM 44.8375 -90.4694 103° East 497 572 39,000  Level Minneapolis Center
Thu 05:03:17 PM 44.7994 -90.2444 103° East 496 571 39,000  Level Minneapolis Center
Thu 05:04:20 PM 44.7686 -90.0547 103° East 498 573 39,000  Level Minneapolis Center
Thu 05:05:22 PM 44.7367 -89.8675 103° East 496 571 39,000  Level Minneapolis Center
Thu 05:06:24 PM 44.7050 -89.6806 103° East 495 570 39,000  Level Minneapolis Center
Thu 05:07:26 PM 44.6692 -89.4853 104° East 481 554 39,000  Level Minneapolis Center
Thu 05:08:28 PM 44.6372 -89.3028 104° East 479 551 39,000  Level Minneapolis Center
Thu 05:09:30 PM 44.6056 -89.1197 104° East 481 554 39,000  Level Minneapolis Center
Thu 05:10:32 PM 44.5678 -88.9094 104° East 477 549 39,000  Level Minneapolis Center
Thu 05:11:34 PM 44.5344 -88.7275 104° East 480 552 39,000  Level Minneapolis Center
Thu 05:12:36 PM 44.5017 -88.5447 104° East 481 554 39,000  Level Minneapolis Center
Thu 05:13:38 PM 44.4678 -88.3633 105° East 480 552 39,000  Level Minneapolis Center
Thu 05:14:40 PM 44.4350 -88.1806 104° East 483 556 39,000  Level Minneapolis Center
Thu 05:15:42 PM 44.4011 -88.0022 105° East 476 548 39,000  Level Minneapolis Center
Thu 05:16:44 PM 44.3614 -87.7886 105° East 482 555 39,000  Level Minneapolis Center
Thu 05:17:46 PM 44.3261 -87.6050 105° East 486 559 39,000  Level Minneapolis Center
Thu 05:18:49 PM 44.2900 -87.4211 105° East 488 562 39,000  Level Minneapolis Center
Thu 05:19:51 PM 44.2531 -87.2356 105° East 491 565 39,000  Level Minneapolis Center
Thu 05:20:53 PM 44.2150 -87.0478 106° East 495 570 39,000  Level Minneapolis Center
Thu 05:21:55 PM 44.1772 -86.8633 106° East 497 572 39,000  Level Minneapolis Center
Thu 05:22:57 PM 44.1394 -86.6792 106° East 498 573 39,000  Level Minneapolis Center
Thu 05:23:59 PM 44.1011 -86.4900 106° East 499 574 39,000  Level Minneapolis Center
Thu 05:25:01 PM 44.0561 -86.2678 106° East 498 573 39,000  Level Minneapolis Center
Thu 05:26:03 PM 44.0175 -86.0828 106° East 498 573 39,000  Level Minneapolis Center
Thu 05:27:05 PM 43.9797 -85.8978 106° East 497 572 39,000  Level Minneapolis Center
Thu 05:28:07 PM 43.9408 -85.7142 106° East 496 571 39,000  Level Minneapolis Center
Thu 05:29:09 PM 43.9017 -85.5306 106° East 496 571 39,000  Level Minneapolis Center
Thu 05:30:11 PM 43.8703 -85.3858 107° East 493 567 39,000  Level Minneapolis Center
Thu 05:31:13 PM 43.8236 -85.1681 106° East 491 565 39,000  Level Minneapolis Center
Thu 05:32:16 PM 43.7753 -84.9492 107° East 493 567 39,000  Level Minneapolis Center
Thu 05:33:18 PM 43.7347 -84.7675 107° East 494 568 39,000  Level Minneapolis Center
Thu 05:34:20 PM 43.6950 -84.5864 107° East 494 568 39,000  Level Minneapolis Center
Thu 05:35:34 PM 43.6550 -84.4064 107° East 492 566 39,000  Level Minneapolis Center
Thu 05:36:36 PM 43.6053 -84.1919 108° East 490 564 39,000  Level Minneapolis Center
Thu 05:37:38 PM 43.5736 -84.0114 104° East 487 560 39,000  Level Minneapolis Center
Thu 05:38:40 PM 43.5878 -83.7942 85° East 477 549 39,000  Level Minneapolis Center
Thu 05:39:42 PM 43.5953 -83.6144 87° East 472 543 39,000  Level Minneapolis Center
Thu 05:40:25 PM 43.5833 -83.4833 97° East 470 541 39,000  Level Toronto Center
Thu 05:40:55 PM 43.6011 -83.4097 72° East 466 536 39,000  Level Cleveland Center
Thu 05:41:55 PM 43.6072 -83.2294 87° East 466 536 39,000  Level Cleveland Center
Thu 05:42:54 PM 43.6156 -83.0461 86° East 466 536 39,000  Level Cleveland Center
Thu 05:43:51 PM 43.6256 -82.8942 85° East 470 541 39,000  Level Minneapolis Center
Thu 05:44:25 PM 43.6167 -82.7667 95° East 470 541 39,000  Level Toronto Center
Thu 05:45:25 PM 43.6333 -82.5667 83° East 460 529 39,000  Level Toronto Center
Thu 05:46:25 PM 43.6333 -82.4000 90° East 460 529 39,000  Level Toronto Center
Thu 05:47:25 PM 43.6333 -82.2333 90° East 460 529 39,000  Level Toronto Center
Thu 05:48:25 PM 43.6333 -82.0500 90° East 450 518 39,000  Level Toronto Center
Thu 05:49:25 PM 43.6500 -81.8833 82° East 450 518 39,000  Level Toronto Center
Thu 05:50:25 PM 43.6500 -81.7000 90° East 450 518 39,000  Level Toronto Center
Thu 05:51:25 PM 43.6500 -81.5167 90° East 450 518 39,000  Level Toronto Center
Thu 05:52:25 PM 43.6500 -81.3667 90° East 450 518 39,000  Level Toronto Center
Thu 05:53:25 PM 43.6500 -81.1833 90° East 450 518 39,000  Level Toronto Center
Thu 05:54:25 PM 43.6667 -81.0167 82° East 450 518 39,000  Level Toronto Center
Thu 05:55:25 PM 43.6667 -80.8500 90° East 440 506 39,000  Level Toronto Center
Thu 05:56:25 PM 43.6833 -80.6667 83° East 440 506 39,000  Level Toronto Center
Thu 05:57:25 PM 43.6833 -80.5167 90° East 440 506 39,000  Level Toronto Center
Thu 05:58:25 PM 43.6833 -80.3500 90° East 440 506 39,000  Level Toronto Center
Thu 05:59:25 PM 43.6833 -80.1833 90° East 440 506 39,000  Level Toronto Center
Thu 06:00:25 PM 43.6833 -80.0000 90° East 440 506 39,000  Level Toronto Center
Thu 06:01:25 PM 43.6833 -79.8333 90° East 440 506 39,000  Level Toronto Center
Thu 06:02:25 PM 43.6833 -79.6500 90° East 450 518 39,000  Level Toronto Center
Thu 06:03:25 PM 43.6833 -79.4667 90° East 440 506 39,000  Level Toronto Center
Thu 06:04:25 PM 43.7000 -79.3333 80° East 430 495 39,000  Level Toronto Center
Thu 06:05:25 PM 43.7000 -79.1500 90° East 440 506 39,000  Level Toronto Center
Thu 06:06:25 PM 43.7000 -78.9833 90° East 440 506 39,000  Level Toronto Center
Thu 06:07:25 PM 43.7000 -78.8333 90° East 440 506 39,000  Level Toronto Center
Thu 06:08:25 PM 43.7000 -78.6333 90° East 440 506 39,000  Level Toronto Center
Thu 06:09:25 PM 43.6833 -78.4833 99° East 440 506 39,000  Level Toronto Center
Thu 06:10:25 PM 43.6833 -78.3167 90° East 430 495 39,000  Level Toronto Center
Thu 06:11:25 PM 43.6833 -78.1500 90° East 430 495 39,000  Level Toronto Center
Thu 06:12:25 PM 43.6833 -77.9667 90° East 430 495 39,000  Level Toronto Center
Thu 06:13:25 PM 43.6833 -77.8167 90° East 440 506 39,000  Level Toronto Center
Thu 06:14:25 PM 43.6833 -77.6500 90° East 440 506 39,000  Level Toronto Center
Thu 06:15:25 PM 43.7000 -77.4667 83° East 440 506 39,000  Level Toronto Center
Thu 06:16:25 PM 43.6833 -77.3000 98° East 450 518 39,000  Level Toronto Center
Thu 06:17:25 PM 43.6833 -77.1167 90° East 450 518 39,000  Level Toronto Center
Thu 06:19:25 PM 43.6833 -76.8000 90° East 450 518 39,000  Level Toronto Center
Thu 06:20:25 PM 43.6667 -76.6167 97° East 450 518 39,000  Level Toronto Center
Thu 06:21:25 PM 43.6667 -76.4500 90° East 450 518 39,000  Level Toronto Center
Thu 06:22:25 PM 43.6667 -76.2667 90° East 450 518 39,000  Level Toronto Center
Thu 06:23:25 PM 43.6667 -76.1000 90° East 460 529 39,000  Level Toronto Center
Thu 06:24:25 PM 43.6500 -75.9167 97° East 450 518 39,000  Level Toronto Center
Thu 06:25:25 PM 43.6667 -75.7333 83° East 460 529 39,000  Level Toronto Center
Thu 06:26:25 PM 43.6500 -75.5500 97° East 460 529 39,000  Level Toronto Center
Thu 06:27:25 PM 43.6500 -75.4000 90° East 460 529 39,000  Level Toronto Center
Thu 06:28:25 PM 43.6500 -75.2333 90° East 460 529 39,000  Level Toronto Center
Thu 06:29:25 PM 43.6333 -75.0500 97° East 460 529 39,000  Level Toronto Center
Thu 06:30:25 PM 43.6333 -74.8667 90° East 470 541 39,000  Level Toronto Center
Thu 06:31:25 PM 43.6167 -74.6833 97° East 460 529 39,000  Level Toronto Center
Thu 06:32:25 PM 43.6167 -74.5167 90° East 470 541 39,000  Level Toronto Center
Thu 06:33:25 PM 43.6000 -74.3333 97° East 460 529 39,000  Level Toronto Center
Thu 06:34:25 PM 43.6000 -74.1667 90° East 470 541 39,000  Level Toronto Center
Thu 06:35:53 PM 43.6075 -73.9542 87° East 461 531 39,000  Level Boston Center
Thu 06:36:53 PM 43.6014 -73.7703 93° East 467 537 39,000  Level Boston Center
Thu 06:37:52 PM 43.5931 -73.5897 94° East 467 537 39,000  Level Boston Center
Thu 06:38:53 PM 43.5864 -73.4089 93° East 467 537 39,000  Level Boston Center
Thu 06:39:53 PM 43.5772 -73.2311 94° East 467 537 39,000  Level Boston Center
Thu 06:40:54 PM 43.5678 -73.0503 94° East 467 537 39,000  Level Boston Center
Thu 06:41:54 PM 43.5647 -72.8469 91° East 473 544 39,000 -356 Level Boston Center
Thu 06:42:52 PM 43.5547 -72.6664 94° East 473 544 38,300 -864 Descending Boston Center
Thu 06:43:52 PM 43.5425 -72.4831 95° East 478 550 37,300 -992 Descending Boston Center
Thu 06:44:53 PM 43.5319 -72.2969 94° East 478 550 36,300 -1,240 Descending Boston Center
Thu 06:45:53 PM 43.5253 -72.1222 93° East 478 550 34,800 -1,488 Descending Boston Center
Thu 06:46:54 PM 43.5122 -71.9506 96° East 465 535 33,300 -1,488 Descending Boston Center
Thu 06:47:54 PM 43.5031 -71.7731 94° East 460 529 31,800 -1,179 Descending Boston Center
Thu 06:48:51 PM 43.4892 -71.5872 96° East 472 543 31,000 -407 Descending Boston Center
Thu 06:49:52 PM 43.4817 -71.4100 93° East 472 543 31,000  Level Boston Center
Thu 06:50:53 PM 43.4672 -71.2272 96° East 478 550 31,000  Level Boston Center
Thu 06:51:54 PM 43.4611 -71.0614 93° East 478 550 31,000 -298 Level Boston Center
Thu 06:52:54 PM 43.4506 -70.8758 94° East 478 550 30,400 -800 Descending Boston Center
Thu 06:53:54 PM 43.4314 -70.6989 98° East 478 550 29,400 -1,017 Descending Boston Center
Thu 06:54:52 PM 43.3356 -70.5703 136° Southeast 446 513 28,400 -1,017 Descending Boston Center
Thu 06:55:52 PM 43.1969 -70.5147 164° South 453 521 27,400 -992 Descending Boston Center
Thu 06:56:53 PM 43.0647 -70.4622 164° South 473 544 26,400 -1,289 Descending Boston Center
Thu 06:57:53 PM 42.9367 -70.4094 163° South 480 552 24,800 -1,835 Descending Boston Center
Thu 06:58:54 PM 42.7981 -70.3547 164° South 480 552 22,700 -1,966 Descending Boston Center
Thu 06:59:52 PM 42.6806 -70.3050 163° South 468 539 20,900 -1,780 Descending Boston Center
Thu 07:00:52 PM 42.5628 -70.2583 164° South 455 524 19,200 -1,550 Descending Boston Center
Thu 07:01:52 PM 42.4661 -70.2194 163° South 432 497 17,800 -1,587 Descending Boston Center
Thu 07:02:53 PM 42.3569 -70.1756 163° South 422 486 16,000 -1,672 Descending Boston Center
Thu 07:03:54 PM 42.2519 -70.1317 163° South 411 473 14,400 -1,563 Descending Boston Center
Thu 07:04:52 PM 42.1467 -70.0906 164° South 398 458 12,900 -1,462 Descending Boston Center
Thu 07:05:53 PM 42.0586 -70.0547 163° South 375 432 11,500 -1,033 Descending Boston Center
Thu 07:06:54 PM 41.9581 -70.0392 173° South 318 366 10,800 -843 Descending Boston Center
Thu 07:07:54 PM 41.8931 -70.1142 221° Southwest 290 334 9,800 -1,017 Descending Boston Center
Thu 07:08:52 PM 41.8342 -70.1914 224° Southwest 285 328 8,800 -1,017 Descending Boston Center
Thu 07:09:52 PM 41.7731 -70.2689 223° Southwest 296 341 7,800 -1,000 Descending Boston Center
Thu 07:10:52 PM 41.7142 -70.3431 223° Southwest 301 346 6,800 -992 Descending Boston Center
Thu 07:11:53 PM 41.6550 -70.4172 223° Southwest 301 346 5,800 -942 Descending Boston Center
Thu 07:12:53 PM 41.5958 -70.4914 223° Southwest 296 341 4,900 -454 Descending Boston Center
Thu 07:13:52 PM 41.5386 -70.5653 224° Southwest 296 341 4,900 50 Level Boston Center
Thu 07:14:52 PM 41.4794 -70.6364 222° Southwest 291 335 5,000 50 Climbing Boston Center
Thu 07:15:52 PM 41.4261 -70.7014 222° Southwest 291 335 5,000 -248 Level Boston Center
Thu 07:16:53 PM 41.3628 -70.7778 222° Southwest 291 335 4,500 -492 Descending Boston Center
Thu 07:18:00 PM 41.3934 -70.6139 75° East  Level Estimated
Thu 07:25:00 PM 41.3934 -70.6139 75° East  Level Estimated
Thu 07:26:00 PM 41.3934 -70.6139 75° East  Level Estimated
Thu 07:27:00 PM 41.3934 -70.6139 75° East  Level Estimated
Thu 07:28:00 PM 41.3934 -70.6139 75° East  Level Estimated
Thu 07:29:00 PM 41.3934 -70.6139 75° East  Level Estimated
Thu 07:30:00 PM 41.3934 -70.6139 75° East  Level Estimated
Thu 07:31:00 PM 41.3934 -70.6139 75° East  Level Estimated

Login

Don't have an account? Register now (free) for customized features, flight alerts, and more!